createdAt,value
2019-03-26T00:02:20.612Z,3.10
2019-03-26T00:05:08.503Z,3.13
2019-03-26T00:07:49.515Z,3.30
2019-03-26T00:10:30.668Z,2.83
2019-03-26T00:13:11.823Z,3.47
2019-03-26T00:15:52.539Z,4.00
2019-03-26T00:18:21.020Z,3.93
2019-03-26T00:21:08.823Z,4.03
2019-03-26T00:23:56.965Z,3.50
2019-03-26T00:26:37.731Z,4.37
2019-03-26T00:29:18.369Z,3.87
2019-03-26T00:31:59.120Z,3.33
2019-03-26T00:34:39.613Z,3.87
2019-03-26T00:37:20.207Z,3.13
2019-03-26T00:40:01.070Z,3.50
2019-03-26T00:42:41.610Z,3.67
2019-03-26T00:45:10.221Z,3.13
2019-03-26T00:47:58.787Z,3.77
2019-03-26T00:50:39.466Z,3.33
2019-03-26T00:53:08.012Z,3.03
2019-03-26T00:55:55.825Z,3.17
2019-03-26T00:58:36.492Z,4.23
2019-03-26T01:01:17.073Z,3.20
2019-03-26T01:03:57.929Z,3.03
2019-03-26T01:06:38.797Z,2.90
2019-03-26T01:09:19.747Z,3.13
2019-03-26T01:11:48.200Z,2.63
2019-03-26T01:14:36.017Z,3.27
2019-03-26T01:17:23.813Z,3.00
2019-03-26T01:20:04.252Z,3.53
2019-03-26T01:22:45.003Z,2.87
2019-03-26T01:25:25.648Z,3.47
2019-03-26T01:28:06.688Z,3.43
2019-03-26T01:30:47.536Z,3.37
2019-03-26T01:33:28.122Z,3.33
2019-03-26T01:36:09.118Z,2.57
2019-03-26T01:38:49.037Z,2.70
2019-03-26T01:41:33.290Z,2.33
2019-03-26T01:44:15.844Z,1.90
2019-03-26T01:46:56.907Z,2.27
2019-03-26T01:49:37.419Z,2.17
2019-03-26T01:52:17.880Z,2.10
2019-03-26T01:54:58.996Z,3.40
2019-03-26T01:57:39.751Z,2.20
2019-03-26T02:00:20.433Z,2.30
2019-03-26T02:03:01.404Z,2.37
2019-03-26T02:05:42.200Z,2.27
2019-03-26T02:08:10.748Z,3.20
2019-03-26T02:10:58.566Z,2.80
2019-03-26T02:13:39.735Z,2.37
2019-03-26T02:16:20.528Z,2.80
2019-03-26T02:19:01.211Z,2.40
2019-03-26T02:21:29.676Z,2.23
2019-03-26T02:24:17.505Z,2.23
2019-03-26T02:27:05.356Z,2.40
2019-03-26T02:29:46.132Z,2.67
2019-03-26T02:32:26.783Z,3.20
2019-03-26T02:35:17.678Z,2.70
2019-03-26T02:37:49.580Z,2.60
2019-03-26T02:40:30.395Z,3.03
2019-03-26T02:43:11.385Z,2.67
2019-03-26T02:45:52.242Z,2.40
2019-03-26T02:48:33.118Z,2.90
2019-03-26T02:51:13.953Z,2.53
2019-03-26T02:53:54.729Z,2.57
2019-03-26T02:56:35.231Z,3.03
2019-03-26T02:59:15.624Z,3.03
2019-03-26T03:01:56.425Z,3.00
2019-03-26T03:04:37.104Z,2.80
2019-03-26T03:07:18.325Z,2.80
2019-03-26T03:10:00.019Z,3.00
2019-03-26T03:12:28.823Z,2.50
2019-03-26T03:15:16.924Z,3.43
2019-03-26T03:17:58.137Z,2.50
2019-03-26T03:20:27.105Z,2.00
2019-03-26T03:23:15.192Z,2.43
2019-03-26T03:25:44.097Z,2.73
2019-03-26T03:28:32.279Z,2.30
2019-03-26T03:31:13.122Z,2.33
2019-03-26T03:33:54.392Z,2.40
2019-03-26T03:36:35.204Z,1.93
2019-03-26T03:39:14.344Z,2.13
2019-03-26T03:41:55.587Z,2.50
2019-03-26T03:44:36.752Z,2.23
2019-03-26T03:47:17.394Z,2.07
2019-03-26T03:49:58.086Z,2.33
2019-03-26T03:52:38.694Z,2.80
2019-03-26T03:55:19.571Z,2.47
2019-03-26T03:58:00.828Z,2.80
2019-03-26T04:00:41.977Z,2.63
2019-03-26T04:03:22.557Z,3.27
2019-03-26T04:06:09.675Z,2.80
2019-03-26T04:08:45.622Z,2.23
2019-03-26T04:11:26.283Z,3.17
2019-03-26T04:14:06.854Z,2.13
2019-03-26T04:16:47.426Z,2.73
2019-03-26T04:19:28.059Z,2.40
2019-03-26T04:28:20.142Z,2.00
2019-03-26T04:31:00.770Z,2.60
2019-03-26T04:33:41.657Z,2.80
2019-03-26T04:36:26.183Z,2.30
2019-03-26T04:39:03.665Z,2.63
2019-03-26T04:41:43.930Z,3.10
2019-03-26T04:50:35.230Z,2.53
2019-03-26T04:53:15.660Z,3.43
2019-03-26T04:55:56.493Z,2.23
2019-03-26T04:58:37.088Z,2.60
2019-03-26T05:01:17.860Z,3.37
2019-03-26T05:04:00.953Z,2.13
2019-03-26T05:06:42.259Z,2.50
2019-03-26T05:09:22.901Z,2.93
2019-03-26T05:12:04.159Z,2.57
2019-03-26T05:14:45.099Z,2.47
2019-03-26T05:17:25.881Z,2.43
2019-03-26T05:20:06.735Z,2.93
2019-03-26T05:22:47.768Z,2.87
2019-03-26T05:25:28.576Z,2.93
2019-03-26T05:28:09.722Z,2.70
2019-03-26T05:30:50.644Z,3.20
2019-03-26T05:33:31.360Z,2.43
2019-03-26T05:36:12.239Z,3.27
2019-03-26T05:38:52.923Z,3.50
2019-03-26T05:41:33.504Z,3.20
2019-03-26T05:44:14.377Z,2.77
2019-03-26T05:46:55.214Z,2.80
2019-03-26T05:49:36.264Z,3.03
2019-03-26T05:52:04.710Z,2.60
2019-03-26T05:54:52.523Z,2.60
2019-03-26T05:57:40.319Z,2.60
2019-03-26T06:00:22.509Z,2.90
2019-03-26T06:03:03.571Z,2.50
2019-03-26T06:05:44.236Z,2.63
2019-03-26T06:08:24.925Z,2.77
2019-03-26T06:11:05.728Z,2.87
2019-03-26T06:13:46.527Z,2.53
2019-03-26T06:16:37.825Z,2.47
2019-03-26T06:19:10.276Z,2.53
2019-03-26T06:21:51.426Z,2.60
2019-03-26T06:24:32.018Z,3.00
2019-03-26T06:27:12.624Z,2.40
2019-03-26T06:29:53.556Z,2.73
2019-03-26T06:32:34.203Z,3.10
2019-03-26T06:35:03.087Z,2.97
2019-03-26T06:38:07.124Z,3.47
2019-03-26T06:40:54.694Z,2.63
2019-03-26T06:43:23.430Z,3.00
2019-03-26T06:46:04.279Z,2.80
2019-03-26T06:48:44.835Z,4.03
2019-03-26T06:51:25.448Z,3.30
2019-03-26T06:54:06.247Z,3.63
2019-03-26T06:56:46.933Z,3.23
2019-03-26T06:59:27.779Z,4.20
2019-03-26T07:02:08.872Z,4.07
2019-03-26T07:04:49.346Z,3.27
2019-03-26T07:07:31.912Z,5.43
2019-03-26T07:10:12.755Z,4.57
2019-03-26T07:12:53.552Z,4.03
2019-03-26T07:15:34.343Z,3.50
2019-03-26T07:18:14.750Z,3.07
2019-03-26T07:20:55.131Z,4.77
2019-03-26T07:23:35.727Z,5.00
2019-03-26T07:26:16.681Z,2.93
2019-03-26T07:28:57.729Z,3.33
2019-03-26T07:31:38.262Z,3.57
2019-03-26T07:34:19.138Z,4.50
2019-03-26T07:36:59.938Z,3.37
2019-03-26T07:39:41.251Z,4.30
2019-03-26T07:42:21.559Z,3.07
2019-03-26T07:45:02.455Z,3.17
2019-03-26T07:47:43.235Z,2.57
2019-03-26T07:50:24.250Z,3.00
2019-03-26T07:53:04.482Z,3.80
2019-03-26T07:55:45.376Z,3.13
2019-03-26T07:58:26.641Z,3.27
2019-03-26T08:01:06.939Z,3.03
2019-03-26T08:03:47.458Z,3.13
2019-03-26T08:06:28.242Z,3.47
2019-03-26T08:09:09.236Z,2.90
2019-03-26T08:11:49.766Z,3.80
2019-03-26T08:14:30.537Z,3.30
2019-03-26T08:17:11.392Z,3.83
2019-03-26T08:19:52.320Z,3.63
2019-03-26T08:22:32.746Z,4.07
2019-03-26T08:25:13.859Z,3.47
2019-03-26T08:27:54.766Z,3.73
2019-03-26T08:30:35.239Z,4.63
2019-03-26T08:33:15.943Z,3.87
2019-03-26T08:35:56.814Z,3.07
2019-03-26T08:38:37.607Z,3.50
2019-03-26T08:41:19.169Z,3.37
2019-03-26T08:44:00.301Z,3.90
2019-03-26T08:46:40.978Z,3.70
2019-03-26T08:49:21.574Z,3.40
2019-03-26T08:52:02.065Z,3.37
2019-03-26T08:54:42.675Z,3.90
2019-03-26T08:57:23.434Z,3.70
2019-03-26T09:00:04.500Z,3.03
2019-03-26T09:05:46.524Z,3.80
2019-03-26T09:08:27.173Z,2.97
2019-03-26T09:11:07.723Z,2.57
2019-03-26T09:13:48.748Z,2.87
2019-03-26T09:16:29.607Z,3.10
2019-03-26T09:19:10.316Z,2.77
2019-03-26T09:21:50.873Z,3.00
2019-03-26T09:24:31.575Z,3.33
2019-03-26T09:27:12.725Z,3.03
2019-03-26T09:29:53.731Z,3.50
2019-03-26T09:32:34.379Z,3.47
2019-03-26T09:35:15.841Z,2.83
2019-03-26T09:37:56.755Z,3.40
2019-03-26T09:40:37.332Z,2.60
2019-03-26T09:43:18.221Z,3.20
2019-03-26T09:45:59.195Z,3.33
2019-03-26T09:48:39.785Z,3.80
2019-03-26T09:51:20.684Z,3.00
2019-03-26T09:54:01.704Z,3.73
2019-03-26T09:56:42.508Z,3.33
2019-03-26T09:59:23.055Z,3.37
2019-03-26T10:02:04.019Z,2.80
2019-03-26T10:04:44.822Z,3.00
2019-03-26T10:07:25.944Z,3.03
2019-03-26T10:13:19.143Z,3.90
2019-03-26T10:16:00.650Z,2.67
2019-03-26T10:18:41.904Z,3.83
2019-03-26T10:21:22.805Z,2.90
2019-03-26T10:24:03.628Z,2.93
2019-03-26T10:26:44.812Z,2.87
2019-03-26T10:29:30.661Z,2.40
2019-03-26T10:32:07.946Z,2.97
2019-03-26T10:34:48.392Z,3.20
2019-03-26T10:37:29.107Z,3.73
2019-03-26T10:40:09.973Z,3.20
2019-03-26T10:42:50.717Z,2.90
2019-03-26T10:45:31.162Z,2.87
2019-03-26T10:48:11.935Z,3.50
2019-03-26T10:50:53.100Z,2.63
2019-03-26T10:53:33.658Z,2.33
2019-03-26T10:56:14.321Z,3.83
2019-03-26T10:58:54.944Z,3.20
2019-03-26T11:01:35.876Z,2.90
2019-03-26T11:04:16.528Z,3.20
2019-03-26T11:06:57.520Z,2.33
2019-03-26T11:09:38.235Z,3.63
2019-03-26T11:18:16.039Z,3.80
2019-03-26T11:21:02.827Z,2.90
2019-03-26T11:23:40.293Z,2.40
2019-03-26T11:26:21.256Z,3.50
2019-03-26T11:29:01.701Z,2.97
2019-03-26T11:31:42.677Z,3.00
2019-03-26T11:34:23.602Z,3.57
2019-03-26T11:37:04.423Z,2.87
2019-03-26T11:39:45.171Z,2.13
2019-03-26T11:42:26.299Z,2.67
2019-03-26T11:45:06.872Z,3.17
2019-03-26T11:47:47.532Z,2.87
2019-03-26T11:50:28.216Z,3.10
2019-03-26T11:53:08.878Z,3.40
2019-03-26T11:55:49.709Z,2.57
2019-03-26T11:58:31.137Z,3.17
2019-03-26T12:01:12.452Z,3.40
2019-03-26T12:03:53.300Z,2.57
2019-03-26T12:06:34.481Z,2.80
2019-03-26T12:09:15.324Z,4.57
2019-03-26T12:11:55.997Z,2.87
2019-03-26T12:14:36.964Z,2.90
2019-03-26T12:17:17.534Z,2.30
2019-03-26T12:19:57.952Z,2.87
2019-03-26T12:22:38.871Z,2.40
2019-03-26T12:25:20.007Z,2.30
2019-03-26T12:28:00.487Z,2.20
2019-03-26T12:30:42.479Z,2.43
2019-03-26T12:33:23.487Z,3.20
2019-03-26T12:36:04.616Z,2.23
2019-03-26T12:38:45.417Z,2.47
2019-03-26T12:41:26.094Z,2.43
2019-03-26T12:44:07.193Z,2.60
2019-03-26T12:46:47.733Z,2.40
2019-03-26T12:49:28.315Z,3.07
2019-03-26T12:52:08.887Z,3.03
2019-03-26T12:54:49.559Z,2.63
2019-03-26T12:57:30.494Z,3.10
2019-03-26T13:00:11.186Z,2.80
2019-03-26T13:02:51.770Z,2.60
2019-03-26T13:05:32.537Z,2.40
2019-03-26T13:08:13.321Z,3.20
2019-03-26T13:10:54.412Z,2.80
2019-03-26T13:13:34.752Z,2.50
2019-03-26T13:16:15.547Z,2.57
2019-03-26T13:18:56.417Z,2.83
2019-03-26T13:21:37.627Z,2.47
2019-03-26T13:24:06.324Z,2.97
2019-03-26T13:26:54.697Z,2.70
2019-03-26T13:29:35.826Z,2.70
2019-03-26T13:32:16.905Z,2.47
2019-03-26T13:34:57.652Z,4.33
2019-03-26T13:37:38.896Z,2.43
2019-03-26T13:40:27.066Z,2.53
2019-03-26T13:43:03.091Z,2.97
2019-03-26T13:45:44.203Z,2.17
2019-03-26T13:48:25.135Z,2.70
2019-03-26T13:50:54.096Z,2.70
2019-03-26T13:53:48.978Z,2.60
2019-03-26T13:56:29.951Z,2.20
2019-03-26T13:59:10.473Z,2.17
2019-03-26T14:01:51.224Z,2.00
2019-03-26T14:04:32.839Z,2.70
2019-03-26T14:07:13.395Z,2.07
2019-03-26T14:09:54.220Z,2.13
2019-03-26T14:12:35.150Z,3.00
2019-03-26T14:15:15.998Z,2.20
2019-03-26T14:17:56.500Z,2.40
2019-03-26T14:20:25.102Z,2.23
2019-03-26T14:23:12.973Z,2.30
2019-03-26T14:26:00.832Z,2.27
2019-03-26T14:28:39.674Z,2.60
2019-03-26T14:31:27.869Z,2.33
2019-03-26T14:34:08.825Z,2.57
2019-03-26T14:36:49.485Z,2.20
2019-03-26T14:39:18.097Z,2.53
2019-03-26T14:42:18.018Z,2.60
2019-03-26T14:44:55.865Z,3.63
2019-03-26T14:47:35.094Z,3.30
2019-03-26T14:50:16.132Z,2.87
2019-03-26T14:53:24.654Z,3.30
2019-03-26T14:56:12.530Z,2.93
2019-03-26T14:58:54.916Z,2.77
2019-03-26T15:01:35.861Z,3.30
2019-03-26T15:04:16.836Z,2.80
2019-03-26T15:06:57.526Z,3.07
2019-03-26T15:09:38.580Z,2.70
2019-03-26T15:12:19.502Z,2.90
2019-03-26T15:15:00.462Z,3.10
2019-03-26T15:17:41.042Z,2.77
2019-03-26T15:20:22.011Z,2.70
2019-03-26T15:23:02.553Z,2.73
2019-03-26T15:25:43.388Z,3.03
2019-03-26T15:28:24.219Z,3.57
2019-03-26T15:31:04.936Z,2.90
2019-03-26T15:33:45.880Z,3.40
2019-03-26T15:36:26.432Z,3.00
2019-03-26T15:39:07.241Z,3.80
2019-03-26T15:41:47.850Z,3.60
2019-03-26T15:44:28.819Z,3.40
2019-03-26T15:47:09.650Z,4.20
2019-03-26T15:49:50.392Z,3.20
2019-03-26T15:52:30.879Z,3.30
2019-03-26T15:55:11.736Z,3.93
2019-03-26T15:57:52.637Z,3.90
2019-03-26T16:00:33.175Z,4.13
2019-03-26T16:03:13.682Z,4.17
2019-03-26T16:05:54.622Z,3.93
2019-03-26T16:08:36.211Z,5.17
2019-03-26T16:11:17.173Z,4.90
2019-03-26T16:13:58.119Z,4.27
2019-03-26T16:16:38.825Z,4.80
2019-03-26T16:19:31.879Z,3.93
2019-03-26T16:22:02.068Z,4.33
2019-03-26T16:24:42.708Z,4.67
2019-03-26T16:27:11.265Z,5.47
2019-03-26T16:29:59.074Z,4.57
2019-03-26T16:32:39.717Z,5.17
2019-03-26T16:35:20.365Z,5.57
2019-03-26T16:38:02.315Z,5.57
2019-03-26T16:40:43.258Z,5.37
2019-03-26T16:43:24.108Z,7.20
2019-03-26T16:46:05.124Z,7.57
2019-03-26T16:48:46.122Z,6.00
2019-03-26T16:51:27.139Z,6.87
2019-03-26T16:54:08.035Z,7.90
2019-03-26T16:56:48.436Z,6.93
2019-03-26T16:59:29.104Z,6.10
2019-03-26T17:02:09.952Z,6.43
2019-03-26T17:04:50.415Z,6.03
2019-03-26T17:07:31.066Z,6.77
2019-03-26T17:10:11.625Z,6.63
2019-03-26T17:12:52.459Z,6.83
2019-03-26T17:15:33.360Z,7.00
2019-03-26T17:18:14.280Z,7.63
2019-03-26T17:20:55.102Z,5.43
2019-03-26T17:23:35.517Z,7.10
2019-03-26T17:26:16.277Z,5.83
2019-03-26T17:28:56.885Z,5.97
2019-03-26T17:31:37.881Z,7.00
2019-03-26T17:34:18.705Z,6.33
2019-03-26T17:36:59.765Z,6.40
2019-03-26T17:39:40.624Z,6.40
2019-03-26T17:42:21.314Z,6.17
2019-03-26T17:45:02.182Z,6.50
2019-03-26T17:47:41.060Z,6.30
2019-03-26T17:50:21.512Z,6.27
2019-03-26T17:53:01.927Z,6.20
2019-03-26T17:55:42.799Z,5.00
2019-03-26T17:58:23.161Z,4.70
2019-03-26T18:01:03.884Z,7.93
2019-03-26T18:03:44.358Z,5.10
2019-03-26T18:06:24.883Z,5.10
2019-03-26T18:09:05.815Z,4.80
2019-03-26T18:11:46.400Z,3.67
2019-03-26T18:14:27.224Z,4.07
2019-03-26T18:17:08.036Z,4.60
2019-03-26T18:19:48.664Z,4.47
2019-03-26T18:22:29.222Z,5.23
2019-03-26T18:25:10.232Z,5.27
2019-03-26T18:27:51.034Z,5.63
2019-03-26T18:30:31.977Z,5.43
2019-03-26T18:33:12.529Z,5.50
2019-03-26T18:35:53.148Z,5.20
2019-03-26T18:38:33.635Z,5.40
2019-03-26T18:41:14.564Z,6.17
2019-03-26T18:43:55.449Z,6.10
2019-03-26T18:46:36.547Z,7.40
2019-03-26T18:49:17.474Z,6.50
2019-03-26T18:51:58.318Z,6.87
2019-03-26T18:54:37.101Z,6.40
2019-03-26T18:57:25.884Z,7.23
2019-03-26T19:00:06.811Z,8.80
2019-03-26T19:02:47.771Z,8.10
2019-03-26T19:05:26.625Z,7.80
2019-03-26T19:08:14.503Z,7.53
2019-03-26T19:10:55.591Z,7.83
2019-03-26T19:13:35.843Z,8.33
2019-03-26T19:16:04.450Z,8.37
2019-03-26T19:18:52.274Z,7.70
2019-03-26T19:21:40.101Z,8.73
2019-03-26T19:24:20.653Z,8.03
2019-03-26T19:27:04.243Z,9.47
2019-03-26T19:29:43.676Z,9.27
2019-03-26T19:32:24.297Z,8.90
2019-03-26T19:35:05.082Z,9.47
2019-03-26T19:37:45.889Z,9.80
2019-03-26T19:40:26.549Z,10.57
2019-03-26T19:43:11.238Z,8.57
2019-03-26T19:45:48.049Z,9.30
2019-03-26T19:48:29.169Z,9.57
2019-03-26T19:51:09.942Z,8.73
2019-03-26T19:53:50.627Z,8.60
2019-03-26T19:56:31.385Z,9.40
2019-03-26T19:59:11.907Z,9.00
2019-03-26T20:01:52.696Z,9.93
2019-03-26T20:04:33.359Z,10.27
2019-03-26T20:07:14.025Z,9.63
2019-03-26T20:09:54.555Z,8.90
2019-03-26T20:12:35.094Z,8.50
2019-03-26T20:15:15.794Z,8.87
2019-03-26T20:17:56.547Z,8.53
2019-03-26T20:20:37.543Z,8.97
2019-03-26T20:23:18.302Z,9.50
2019-03-26T20:25:59.116Z,8.67
2019-03-26T20:28:39.970Z,8.70
2019-03-26T20:31:21.079Z,8.30
2019-03-26T20:34:01.401Z,8.40
2019-03-26T20:36:41.978Z,8.57
2019-03-26T20:39:22.744Z,9.53
2019-03-26T20:42:03.620Z,10.40
2019-03-26T20:44:44.330Z,8.57
2019-03-26T20:47:25.080Z,8.70
2019-03-26T20:50:05.966Z,8.87
2019-03-26T20:52:46.565Z,8.87
2019-03-26T20:55:27.065Z,9.30
2019-03-26T20:58:07.518Z,8.73
2019-03-26T21:00:48.490Z,8.33
2019-03-26T21:03:29.425Z,9.10
2019-03-26T21:06:10.292Z,8.20
2019-03-26T21:08:51.335Z,9.00
2019-03-26T21:11:32.419Z,9.10
2019-03-26T21:14:13.222Z,9.03
2019-03-26T21:16:53.628Z,8.97
2019-03-26T21:19:34.116Z,8.30
2019-03-26T21:22:14.931Z,9.00
2019-03-26T21:24:55.816Z,9.03
2019-03-26T21:27:24.287Z,8.43
2019-03-26T21:33:12.951Z,9.87
2019-03-26T21:35:51.785Z,10.37
2019-03-26T21:38:32.071Z,10.97
2019-03-26T21:41:12.801Z,9.23
2019-03-26T21:44:03.534Z,10.60
2019-03-26T21:46:36.181Z,9.50
2019-03-26T21:49:17.131Z,10.03
2019-03-26T21:51:57.877Z,10.77
2019-03-26T21:54:38.822Z,10.37
2019-03-26T21:57:19.413Z,10.83
2019-03-26T22:00:00.072Z,11.97
2019-03-26T22:02:40.812Z,11.63
2019-03-26T22:05:21.899Z,10.47
2019-03-26T22:08:03.006Z,9.70
2019-03-26T22:10:43.461Z,10.60
2019-03-26T22:13:24.413Z,10.23
2019-03-26T22:16:05.018Z,10.90
2019-03-26T22:18:45.987Z,10.63
2019-03-26T22:21:26.877Z,9.80
2019-03-26T22:24:07.961Z,11.03
2019-03-26T22:26:49.096Z,10.60
2019-03-26T22:29:29.903Z,11.13
2019-03-26T22:32:10.977Z,11.20
2019-03-26T22:34:51.585Z,11.40
2019-03-26T22:37:32.621Z,11.23
2019-03-26T22:40:13.385Z,11.33
2019-03-26T22:42:54.521Z,11.60
2019-03-26T22:45:35.349Z,11.63
2019-03-26T22:48:04.004Z,11.30
2019-03-26T22:50:51.993Z,11.10
2019-03-26T22:53:39.864Z,11.60
2019-03-26T22:56:20.684Z,11.17
2019-03-26T22:59:01.284Z,11.37
2019-03-26T23:01:29.741Z,12.13
2019-03-26T23:04:20.021Z,12.37
2019-03-26T23:06:47.990Z,10.23
2019-03-26T23:09:50.081Z,10.97
2019-03-26T23:12:20.869Z,10.73
2019-03-26T23:15:02.194Z,10.43
2019-03-26T23:17:42.599Z,10.43
2019-03-26T23:20:23.487Z,10.60
2019-03-26T23:23:04.141Z,10.57
2019-03-26T23:25:32.612Z,10.20
2019-03-26T23:28:20.408Z,11.43
2019-03-26T23:31:01.548Z,11.37
2019-03-26T23:33:30.024Z,10.87
2019-03-26T23:36:17.838Z,9.57
2019-03-26T23:39:06.305Z,10.57
2019-03-26T23:41:46.647Z,10.40
2019-03-26T23:44:27.327Z,11.07
2019-03-26T23:47:08.045Z,11.63
2019-03-26T23:49:48.784Z,10.73
2019-03-26T23:52:29.641Z,10.27
2019-03-26T23:55:10.632Z,10.83
2019-03-26T23:57:52.246Z,10.97
